sensor_id;sensor_type;location;lat;lon;timestamp;temperature;humidity
16517;DHT22;8371;52.272;9.746;2022-09-09T00:02:05;16.80;75.70
16517;DHT22;8371;52.272;9.746;2022-09-09T00:04:36;16.80;75.80
16517;DHT22;8371;52.272;9.746;2022-09-09T00:07:25;16.70;75.80
16517;DHT22;8371;52.272;9.746;2022-09-09T00:13:13;16.70;75.70
16517;DHT22;8371;52.272;9.746;2022-09-09T00:15:49;16.70;76.00
16517;DHT22;8371;52.272;9.746;2022-09-09T00:20:45;16.60;75.80
16517;DHT22;8371;52.272;9.746;2022-09-09T00:23:14;16.60;75.90
16517;DHT22;8371;52.272;9.746;2022-09-09T00:25:57;16.50;75.10
16517;DHT22;8371;52.272;9.746;2022-09-09T00:28:26;16.50;75.90
16517;DHT22;8371;52.272;9.746;2022-09-09T00:30:52;16.50;75.90
16517;DHT22;8371;52.272;9.746;2022-09-09T00:33:24;16.50;76.00
16517;DHT22;8371;52.272;9.746;2022-09-09T00:35:57;16.50;76.00
16517;DHT22;8371;52.272;9.746;2022-09-09T00:38:28;16.50;76.10
16517;DHT22;8371;52.272;9.746;2022-09-09T00:41:15;16.40;76.10
16517;DHT22;8371;52.272;9.746;2022-09-09T00:43:40;16.40;76.20
16517;DHT22;8371;52.272;9.746;2022-09-09T00:46:28;16.40;76.10
16517;DHT22;8371;52.272;9.746;2022-09-09T00:57:34;16.30;76.10
16517;DHT22;8371;52.272;9.746;2022-09-09T01:05:51;16.30;76.20
16517;DHT22;8371;52.272;9.746;2022-09-09T01:08:20;16.20;76.20
16517;DHT22;8371;52.272;9.746;2022-09-09T01:10:48;16.20;76.20
16517;DHT22;8371;52.272;9.746;2022-09-09T01:13:20;16.20;76.30
16517;DHT22;8371;52.272;9.746;2022-09-09T01:15:45;16.20;76.40
16517;DHT22;8371;52.272;9.746;2022-09-09T01:18:15;16.10;76.50
16517;DHT22;8371;52.272;9.746;2022-09-09T01:21:55;16.10;76.50
16517;DHT22;8371;52.272;9.746;2022-09-09T01:23:41;16.10;76.50
16517;DHT22;8371;52.272;9.746;2022-09-09T01:28:51;16.10;76.50
16517;DHT22;8371;52.272;9.746;2022-09-09T01:31:23;16.00;76.50
16517;DHT22;8371;52.272;9.746;2022-09-09T01:33:50;16.10;76.70
16517;DHT22;8371;52.272;9.746;2022-09-09T01:36:37;16.00;76.70
16517;DHT22;8371;52.272;9.746;2022-09-09T01:39:03;16.00;76.90
16517;DHT22;8371;52.272;9.746;2022-09-09T01:41:29;16.00;76.80
16517;DHT22;8371;52.272;9.746;2022-09-09T01:43:55;16.00;76.90
16517;DHT22;8371;52.272;9.746;2022-09-09T01:46:22;16.00;77.00
16517;DHT22;8371;52.272;9.746;2022-09-09T01:48:51;16.00;77.00
16517;DHT22;8371;52.272;9.746;2022-09-09T01:51:17;16.10;77.00
16517;DHT22;8371;52.272;9.746;2022-09-09T01:53:45;16.10;77.00
16517;DHT22;8371;52.272;9.746;2022-09-09T02:01:45;16.00;77.00
16517;DHT22;8371;52.272;9.746;2022-09-09T02:04:20;16.00;77.00
16517;DHT22;8371;52.272;9.746;2022-09-09T02:06:42;16.00;77.00
16517;DHT22;8371;52.272;9.746;2022-09-09T02:09:11;16.00;77.10
16517;DHT22;8371;52.272;9.746;2022-09-09T02:11:38;16.00;77.20
16517;DHT22;8371;52.272;9.746;2022-09-09T02:14:22;16.00;77.20
16517;DHT22;8371;52.272;9.746;2022-09-09T02:16:55;16.00;77.30
16517;DHT22;8371;52.272;9.746;2022-09-09T02:19:28;16.00;77.30
16517;DHT22;8371;52.272;9.746;2022-09-09T02:21:57;16.00;77.30
16517;DHT22;8371;52.272;9.746;2022-09-09T02:24:26;16.00;77.30
16517;DHT22;8371;52.272;9.746;2022-09-09T02:26:54;16.00;77.30
16517;DHT22;8371;52.272;9.746;2022-09-09T02:29:36;16.00;77.40
16517;DHT22;8371;52.272;9.746;2022-09-09T02:31:57;16.00;77.30
16517;DHT22;8371;52.272;9.746;2022-09-09T02:34:25;16.00;77.30
16517;DHT22;8371;52.272;9.746;2022-09-09T02:36:53;16.00;77.40
16517;DHT22;8371;52.272;9.746;2022-09-09T02:39:20;16.00;77.60
16517;DHT22;8371;52.272;9.746;2022-09-09T02:41:49;16.00;77.50
16517;DHT22;8371;52.272;9.746;2022-09-09T02:44:16;16.00;77.70
16517;DHT22;8371;52.272;9.746;2022-09-09T02:47:06;16.10;78.00
16517;DHT22;8371;52.272;9.746;2022-09-09T02:49:35;16.10;78.90
16517;DHT22;8371;52.272;9.746;2022-09-09T02:52:07;16.10;78.30
16517;DHT22;8371;52.272;9.746;2022-09-09T02:54:35;16.10;78.50
16517;DHT22;8371;52.272;9.746;2022-09-09T02:59:39;16.30;79.50
16517;DHT22;8371;52.272;9.746;2022-09-09T03:02:05;16.30;78.80
16517;DHT22;8371;52.272;9.746;2022-09-09T03:04:31;16.30;78.80
16517;DHT22;8371;52.272;9.746;2022-09-09T03:06:58;16.40;78.90
16517;DHT22;8371;52.272;9.746;2022-09-09T03:09:24;16.50;78.90
16517;DHT22;8371;52.272;9.746;2022-09-09T03:11:51;16.50;78.90
16517;DHT22;8371;52.272;9.746;2022-09-09T03:14:17;16.50;78.80
16517;DHT22;8371;52.272;9.746;2022-09-09T03:16:45;16.60;78.70
16517;DHT22;8371;52.272;9.746;2022-09-09T03:19:11;16.60;78.80
16517;DHT22;8371;52.272;9.746;2022-09-09T03:21:37;16.70;78.70
16517;DHT22;8371;52.272;9.746;2022-09-09T03:24:03;16.70;78.80
16517;DHT22;8371;52.272;9.746;2022-09-09T03:26:29;16.80;78.80
16517;DHT22;8371;52.272;9.746;2022-09-09T03:28:56;16.80;78.60
16517;DHT22;8371;52.272;9.746;2022-09-09T03:31:22;16.80;78.60
16517;DHT22;8371;52.272;9.746;2022-09-09T03:33:47;16.80;78.50
16517;DHT22;8371;52.272;9.746;2022-09-09T03:36:14;16.90;78.50
16517;DHT22;8371;52.272;9.746;2022-09-09T03:38:41;16.90;78.50
16517;DHT22;8371;52.272;9.746;2022-09-09T03:41:07;16.90;78.50
16517;DHT22;8371;52.272;9.746;2022-09-09T03:43:33;16.90;78.50
16517;DHT22;8371;52.272;9.746;2022-09-09T03:45:59;17.00;78.50
16517;DHT22;8371;52.272;9.746;2022-09-09T03:48:25;17.00;78.50
16517;DHT22;8371;52.272;9.746;2022-09-09T03:50:53;17.00;78.50
16517;DHT22;8371;52.272;9.746;2022-09-09T03:53:23;17.00;78.50
16517;DHT22;8371;52.272;9.746;2022-09-09T03:55:50;17.10;78.60
16517;DHT22;8371;52.272;9.746;2022-09-09T03:58:18;17.10;78.50
16517;DHT22;8371;52.272;9.746;2022-09-09T04:00:53;17.10;78.40
16517;DHT22;8371;52.272;9.746;2022-09-09T04:03:19;17.10;78.30
16517;DHT22;8371;52.272;9.746;2022-09-09T04:05:44;17.10;78.30
16517;DHT22;8371;52.272;9.746;2022-09-09T04:08:10;17.10;78.30
16517;DHT22;8371;52.272;9.746;2022-09-09T04:10:36;17.10;78.30
16517;DHT22;8371;52.272;9.746;2022-09-09T04:13:03;17.20;78.90
16517;DHT22;8371;52.272;9.746;2022-09-09T04:15:30;17.20;78.30
16517;DHT22;8371;52.272;9.746;2022-09-09T04:17:56;17.20;78.30
16517;DHT22;8371;52.272;9.746;2022-09-09T04:20:22;17.20;78.40
16517;DHT22;8371;52.272;9.746;2022-09-09T04:22:47;17.20;78.30
16517;DHT22;8371;52.272;9.746;2022-09-09T04:25:13;17.20;78.30
16517;DHT22;8371;52.272;9.746;2022-09-09T04:27:39;17.20;78.30
16517;DHT22;8371;52.272;9.746;2022-09-09T04:30:06;17.20;78.30
16517;DHT22;8371;52.272;9.746;2022-09-09T04:32:33;17.20;78.40
16517;DHT22;8371;52.272;9.746;2022-09-09T04:34:59;17.20;78.40
16517;DHT22;8371;52.272;9.746;2022-09-09T04:37:24;17.20;78.40
16517;DHT22;8371;52.272;9.746;2022-09-09T04:39:50;17.20;78.40
16517;DHT22;8371;52.272;9.746;2022-09-09T04:42:16;17.20;78.50
16517;DHT22;8371;52.272;9.746;2022-09-09T04:44:44;17.20;78.50
16517;DHT22;8371;52.272;9.746;2022-09-09T04:47:10;17.30;78.60
16517;DHT22;8371;52.272;9.746;2022-09-09T04:49:36;17.30;78.60
16517;DHT22;8371;52.272;9.746;2022-09-09T04:52:03;17.30;78.60
16517;DHT22;8371;52.272;9.746;2022-09-09T04:54:29;17.30;78.60
16517;DHT22;8371;52.272;9.746;2022-09-09T04:56:55;17.30;78.60
16517;DHT22;8371;52.272;9.746;2022-09-09T04:59:21;17.30;78.70
16517;DHT22;8371;52.272;9.746;2022-09-09T05:01:48;17.40;78.70
16517;DHT22;8371;52.272;9.746;2022-09-09T05:04:13;17.40;78.70
16517;DHT22;8371;52.272;9.746;2022-09-09T05:06:41;17.40;78.70
16517;DHT22;8371;52.272;9.746;2022-09-09T05:09:08;17.40;78.70
16517;DHT22;8371;52.272;9.746;2022-09-09T05:11:34;17.40;79.50
16517;DHT22;8371;52.272;9.746;2022-09-09T05:14:04;17.40;79.30
16517;DHT22;8371;52.272;9.746;2022-09-09T05:16:30;17.40;78.80
16517;DHT22;8371;52.272;9.746;2022-09-09T05:18:57;17.40;78.80
16517;DHT22;8371;52.272;9.746;2022-09-09T05:21:24;17.50;78.90
16517;DHT22;8371;52.272;9.746;2022-09-09T05:23:51;17.50;79.00
16517;DHT22;8371;52.272;9.746;2022-09-09T05:26:19;17.50;78.90
16517;DHT22;8371;52.272;9.746;2022-09-09T05:28:45;17.50;79.10
16517;DHT22;8371;52.272;9.746;2022-09-09T05:31:13;17.50;79.00
16517;DHT22;8371;52.272;9.746;2022-09-09T05:33:40;17.50;79.20
16517;DHT22;8371;52.272;9.746;2022-09-09T05:36:08;17.60;79.10
16517;DHT22;8371;52.272;9.746;2022-09-09T05:38:36;17.60;79.10
16517;DHT22;8371;52.272;9.746;2022-09-09T05:41:03;17.60;79.10
16517;DHT22;8371;52.272;9.746;2022-09-09T05:43:29;17.70;80.00
16517;DHT22;8371;52.272;9.746;2022-09-09T05:46:06;17.70;79.20
16517;DHT22;8371;52.272;9.746;2022-09-09T05:48:34;17.70;79.20
16517;DHT22;8371;52.272;9.746;2022-09-09T05:51:01;17.80;79.20
16517;DHT22;8371;52.272;9.746;2022-09-09T05:53:27;17.80;79.20
16517;DHT22;8371;52.272;9.746;2022-09-09T05:56:04;17.80;79.20
16517;DHT22;8371;52.272;9.746;2022-09-09T05:58:34;17.80;79.20
16517;DHT22;8371;52.272;9.746;2022-09-09T06:01:01;17.90;79.40
16517;DHT22;8371;52.272;9.746;2022-09-09T06:03:27;17.90;79.40
16517;DHT22;8371;52.272;9.746;2022-09-09T06:06:01;18.00;79.50
16517;DHT22;8371;52.272;9.746;2022-09-09T06:08:27;18.00;79.70
16517;DHT22;8371;52.272;9.746;2022-09-09T06:10:53;18.10;79.70
16517;DHT22;8371;52.272;9.746;2022-09-09T06:13:19;18.10;79.80
16517;DHT22;8371;52.272;9.746;2022-09-09T06:15:51;18.20;80.10
16517;DHT22;8371;52.272;9.746;2022-09-09T06:18:18;18.30;80.20
16517;DHT22;8371;52.272;9.746;2022-09-09T06:20:58;18.40;80.50
16517;DHT22;8371;52.272;9.746;2022-09-09T06:23:25;18.50;80.80
16517;DHT22;8371;52.272;9.746;2022-09-09T06:25:51;18.60;81.10
16517;DHT22;8371;52.272;9.746;2022-09-09T06:28:17;18.80;81.30
16517;DHT22;8371;52.272;9.746;2022-09-09T06:30:44;18.90;81.40
16517;DHT22;8371;52.272;9.746;2022-09-09T06:33:10;19.10;81.60
16517;DHT22;8371;52.272;9.746;2022-09-09T06:35:36;19.20;81.60
16517;DHT22;8371;52.272;9.746;2022-09-09T06:38:01;19.50;81.80
16517;DHT22;8371;52.272;9.746;2022-09-09T06:40:27;19.60;81.60
16517;DHT22;8371;52.272;9.746;2022-09-09T06:42:53;19.90;81.80
16517;DHT22;8371;52.272;9.746;2022-09-09T06:45:18;20.10;82.00
16517;DHT22;8371;52.272;9.746;2022-09-09T06:47:44;20.30;82.00
16517;DHT22;8371;52.272;9.746;2022-09-09T06:50:10;20.60;81.60
16517;DHT22;8371;52.272;9.746;2022-09-09T06:52:36;20.80;81.10
16517;DHT22;8371;52.272;9.746;2022-09-09T06:55:04;21.00;80.40
16517;DHT22;8371;52.272;9.746;2022-09-09T06:57:30;21.20;79.80
16517;DHT22;8371;52.272;9.746;2022-09-09T06:59:55;21.40;79.10
16517;DHT22;8371;52.272;9.746;2022-09-09T07:02:21;21.60;78.50
16517;DHT22;8371;52.272;9.746;2022-09-09T07:04:47;21.70;77.90
16517;DHT22;8371;52.272;9.746;2022-09-09T07:07:12;21.90;77.30
16517;DHT22;8371;52.272;9.746;2022-09-09T07:09:40;22.00;76.90
16517;DHT22;8371;52.272;9.746;2022-09-09T07:12:06;22.10;76.60
16517;DHT22;8371;52.272;9.746;2022-09-09T07:14:32;22.30;76.40
16517;DHT22;8371;52.272;9.746;2022-09-09T07:16:59;22.40;75.90
16517;DHT22;8371;52.272;9.746;2022-09-09T07:19:25;22.50;75.80
16517;DHT22;8371;52.272;9.746;2022-09-09T07:21:51;22.60;75.80
16517;DHT22;8371;52.272;9.746;2022-09-09T07:24:17;22.70;75.40
16517;DHT22;8371;52.272;9.746;2022-09-09T07:26:42;22.80;75.00
16517;DHT22;8371;52.272;9.746;2022-09-09T07:29:09;22.90;75.00
16517;DHT22;8371;52.272;9.746;2022-09-09T07:31:38;23.00;75.30
16517;DHT22;8371;52.272;9.746;2022-09-09T07:34:05;23.10;74.40
16517;DHT22;8371;52.272;9.746;2022-09-09T07:36:37;23.30;74.20
16517;DHT22;8371;52.272;9.746;2022-09-09T07:39:06;23.40;73.90
16517;DHT22;8371;52.272;9.746;2022-09-09T07:41:35;23.50;73.60
16517;DHT22;8371;52.272;9.746;2022-09-09T07:44:06;23.60;74.00
16517;DHT22;8371;52.272;9.746;2022-09-09T07:46:32;23.70;72.90
16517;DHT22;8371;52.272;9.746;2022-09-09T07:48:59;23.80;72.70
16517;DHT22;8371;52.272;9.746;2022-09-09T07:51:31;23.90;72.50
16517;DHT22;8371;52.272;9.746;2022-09-09T07:54:00;24.00;72.60
16517;DHT22;8371;52.272;9.746;2022-09-09T07:56:28;24.20;72.60
16517;DHT22;8371;52.272;9.746;2022-09-09T07:58:55;24.40;72.00
16517;DHT22;8371;52.272;9.746;2022-09-09T08:01:24;24.50;71.60
16517;DHT22;8371;52.272;9.746;2022-09-09T08:03:59;24.60;71.10
16517;DHT22;8371;52.272;9.746;2022-09-09T08:06:28;24.70;70.70
16517;DHT22;8371;52.272;9.746;2022-09-09T08:08:54;24.80;70.10
16517;DHT22;8371;52.272;9.746;2022-09-09T08:11:21;24.80;69.20
16517;DHT22;8371;52.272;9.746;2022-09-09T08:13:50;24.90;68.30
16517;DHT22;8371;52.272;9.746;2022-09-09T08:16:20;24.80;67.90
16517;DHT22;8371;52.272;9.746;2022-09-09T08:18:49;24.80;67.60
16517;DHT22;8371;52.272;9.746;2022-09-09T08:21:17;24.80;67.40
16517;DHT22;8371;52.272;9.746;2022-09-09T08:23:45;24.80;67.50
16517;DHT22;8371;52.272;9.746;2022-09-09T08:26:18;24.70;67.20
16517;DHT22;8371;52.272;9.746;2022-09-09T08:28:45;24.70;67.30
16517;DHT22;8371;52.272;9.746;2022-09-09T08:31:16;24.70;67.20
16517;DHT22;8371;52.272;9.746;2022-09-09T08:33:43;24.70;67.40
16517;DHT22;8371;52.272;9.746;2022-09-09T08:36:21;24.70;67.30
16517;DHT22;8371;52.272;9.746;2022-09-09T08:38:48;24.70;67.20
16517;DHT22;8371;52.272;9.746;2022-09-09T08:55:12;24.90;66.70
16517;DHT22;8371;52.272;9.746;2022-09-09T08:57:32;25.00;66.60
16517;DHT22;8371;52.272;9.746;2022-09-09T08:59:58;25.10;66.60
16517;DHT22;8371;52.272;9.746;2022-09-09T09:02:53;25.20;66.40
16517;DHT22;8371;52.272;9.746;2022-09-09T09:05:30;25.30;66.10
16517;DHT22;8371;52.272;9.746;2022-09-09T09:08:17;25.40;66.90
16517;DHT22;8371;52.272;9.746;2022-09-09T09:10:48;25.50;66.00
16517;DHT22;8371;52.272;9.746;2022-09-09T09:13:20;25.60;65.80
16517;DHT22;8371;52.272;9.746;2022-09-09T09:15:50;25.70;65.40
16517;DHT22;8371;52.272;9.746;2022-09-09T09:18:17;25.90;65.40
16517;DHT22;8371;52.272;9.746;2022-09-09T09:20:52;26.00;65.10
16517;DHT22;8371;52.272;9.746;2022-09-09T09:23:23;26.10;64.50
16517;DHT22;8371;52.272;9.746;2022-09-09T09:25:52;26.20;64.30
16517;DHT22;8371;52.272;9.746;2022-09-09T09:28:24;26.30;63.80
16517;DHT22;8371;52.272;9.746;2022-09-09T09:30:56;26.30;63.30
16517;DHT22;8371;52.272;9.746;2022-09-09T09:33:47;26.40;63.10
16517;DHT22;8371;52.272;9.746;2022-09-09T09:36:13;26.40;62.70
16517;DHT22;8371;52.272;9.746;2022-09-09T09:38:57;26.40;62.60
16517;DHT22;8371;52.272;9.746;2022-09-09T09:41:38;26.40;62.00
16517;DHT22;8371;52.272;9.746;2022-09-09T09:44:18;26.40;61.90
16517;DHT22;8371;52.272;9.746;2022-09-09T09:46:34;26.40;62.00
16517;DHT22;8371;52.272;9.746;2022-09-09T09:49:03;26.40;62.20
16517;DHT22;8371;52.272;9.746;2022-09-09T09:51:31;26.50;62.40
16517;DHT22;8371;52.272;9.746;2022-09-09T09:54:13;26.70;62.60
16517;DHT22;8371;52.272;9.746;2022-09-09T09:56:37;26.80;62.60
16517;DHT22;8371;52.272;9.746;2022-09-09T09:59:03;27.00;62.60
16517;DHT22;8371;52.272;9.746;2022-09-09T10:01:30;27.10;62.30
16517;DHT22;8371;52.272;9.746;2022-09-09T10:04:13;27.30;61.70
16517;DHT22;8371;52.272;9.746;2022-09-09T10:06:36;27.40;61.20
16517;DHT22;8371;52.272;9.746;2022-09-09T10:09:17;27.50;60.30
16517;DHT22;8371;52.272;9.746;2022-09-09T10:11:46;27.50;60.00
16517;DHT22;8371;52.272;9.746;2022-09-09T10:14:20;27.60;59.80
16517;DHT22;8371;52.272;9.746;2022-09-09T10:16:59;27.50;59.60
16517;DHT22;8371;52.272;9.746;2022-09-09T10:19:34;27.50;59.50
16517;DHT22;8371;52.272;9.746;2022-09-09T10:22:26;27.50;59.30
16517;DHT22;8371;52.272;9.746;2022-09-09T10:25:25;27.50;58.60
16517;DHT22;8371;52.272;9.746;2022-09-09T10:33:49;27.20;58.80
16517;DHT22;8371;52.272;9.746;2022-09-09T10:36:25;27.10;58.80
16517;DHT22;8371;52.272;9.746;2022-09-09T10:39:18;27.00;58.60
16517;DHT22;8371;52.272;9.746;2022-09-09T10:42:05;26.80;58.60
16517;DHT22;8371;52.272;9.746;2022-09-09T10:44:30;26.70;58.50
16517;DHT22;8371;52.272;9.746;2022-09-09T10:55:27;26.50;59.30
16517;DHT22;8371;52.272;9.746;2022-09-09T10:57:55;26.50;59.50
16517;DHT22;8371;52.272;9.746;2022-09-09T11:00:44;26.70;59.90
16517;DHT22;8371;52.272;9.746;2022-09-09T11:03:22;26.90;60.00
16517;DHT22;8371;52.272;9.746;2022-09-09T11:05:53;27.10;59.80
16517;DHT22;8371;52.272;9.746;2022-09-09T11:08:21;27.40;59.30
16517;DHT22;8371;52.272;9.746;2022-09-09T11:10:58;27.60;58.70
16517;DHT22;8371;52.272;9.746;2022-09-09T11:14:02;27.70;57.90
16517;DHT22;8371;52.272;9.746;2022-09-09T11:19:38;27.80;57.00
16517;DHT22;8371;52.272;9.746;2022-09-09T11:22:23;27.70;56.80
16517;DHT22;8371;52.272;9.746;2022-09-09T11:25:02;27.60;56.00
16517;DHT22;8371;52.272;9.746;2022-09-09T11:27:38;27.40;55.00
16517;DHT22;8371;52.272;9.746;2022-09-09T11:30:30;27.00;54.60
16517;DHT22;8371;52.272;9.746;2022-09-09T11:36:02;26.20;54.20
16517;DHT22;8371;52.272;9.746;2022-09-09T11:38:29;25.70;54.30
16517;DHT22;8371;52.272;9.746;2022-09-09T11:40:58;25.30;54.60
16517;DHT22;8371;52.272;9.746;2022-09-09T11:43:46;24.80;54.90
16517;DHT22;8371;52.272;9.746;2022-09-09T11:46:13;24.40;55.60
16517;DHT22;8371;52.272;9.746;2022-09-09T11:48:45;24.00;56.10
16517;DHT22;8371;52.272;9.746;2022-09-09T11:53:49;23.40;57.20
16517;DHT22;8371;52.272;9.746;2022-09-09T11:56:24;23.10;57.60
16517;DHT22;8371;52.272;9.746;2022-09-09T11:59:00;22.90;58.00
16517;DHT22;8371;52.272;9.746;2022-09-09T12:01:44;22.70;58.40
16517;DHT22;8371;52.272;9.746;2022-09-09T12:04:27;22.50;58.70
16517;DHT22;8371;52.272;9.746;2022-09-09T12:09:31;22.30;59.80
16517;DHT22;8371;52.272;9.746;2022-09-09T12:14:55;22.20;61.20
16517;DHT22;8371;52.272;9.746;2022-09-09T12:17:24;22.30;61.70
16517;DHT22;8371;52.272;9.746;2022-09-09T12:19:59;22.40;62.00
16517;DHT22;8371;52.272;9.746;2022-09-09T12:27:41;22.80;62.20
16517;DHT22;8371;52.272;9.746;2022-09-09T12:30:16;23.10;62.00
16517;DHT22;8371;52.272;9.746;2022-09-09T12:32:42;23.30;62.70
16517;DHT22;8371;52.272;9.746;2022-09-09T12:35:13;23.50;61.60
16517;DHT22;8371;52.272;9.746;2022-09-09T12:37:42;23.70;61.30
16517;DHT22;8371;52.272;9.746;2022-09-09T12:40:23;23.90;61.40
16517;DHT22;8371;52.272;9.746;2022-09-09T12:42:50;24.20;61.00
16517;DHT22;8371;52.272;9.746;2022-09-09T12:45:23;24.40;61.00
16517;DHT22;8371;52.272;9.746;2022-09-09T12:47:53;24.60;60.30
16517;DHT22;8371;52.272;9.746;2022-09-09T12:50:25;24.80;60.10
16517;DHT22;8371;52.272;9.746;2022-09-09T12:52:54;25.00;59.60
16517;DHT22;8371;52.272;9.746;2022-09-09T12:55:24;25.20;59.60
16517;DHT22;8371;52.272;9.746;2022-09-09T12:57:51;25.20;59.20
16517;DHT22;8371;52.272;9.746;2022-09-09T13:00:21;25.40;59.20
16517;DHT22;8371;52.272;9.746;2022-09-09T13:02:54;25.50;59.20
16517;DHT22;8371;52.272;9.746;2022-09-09T13:05:33;25.60;59.10
16517;DHT22;8371;52.272;9.746;2022-09-09T13:08:04;25.70;59.10
16517;DHT22;8371;52.272;9.746;2022-09-09T13:10:33;25.80;58.90
16517;DHT22;8371;52.272;9.746;2022-09-09T13:12:59;26.00;58.90
16517;DHT22;8371;52.272;9.746;2022-09-09T13:15:28;26.20;58.70
16517;DHT22;8371;52.272;9.746;2022-09-09T13:17:56;26.30;58.60
16517;DHT22;8371;52.272;9.746;2022-09-09T13:20:24;26.50;58.20
16517;DHT22;8371;52.272;9.746;2022-09-09T13:22:51;26.60;58.20
16517;DHT22;8371;52.272;9.746;2022-09-09T13:25:27;26.70;57.90
16517;DHT22;8371;52.272;9.746;2022-09-09T13:27:56;26.80;57.40
16517;DHT22;8371;52.272;9.746;2022-09-09T13:30:33;26.80;57.20
16517;DHT22;8371;52.272;9.746;2022-09-09T13:33:18;26.90;57.00
16517;DHT22;8371;52.272;9.746;2022-09-09T13:35:35;26.90;56.50
16517;DHT22;8371;52.272;9.746;2022-09-09T13:38:07;26.90;56.40
16517;DHT22;8371;52.272;9.746;2022-09-09T13:40:34;26.90;56.20
16517;DHT22;8371;52.272;9.746;2022-09-09T13:43:00;26.90;56.00
16517;DHT22;8371;52.272;9.746;2022-09-09T13:45:27;26.80;55.90
16517;DHT22;8371;52.272;9.746;2022-09-09T13:47:54;26.80;55.70
16517;DHT22;8371;52.272;9.746;2022-09-09T13:50:26;26.70;55.70
16517;DHT22;8371;52.272;9.746;2022-09-09T13:52:57;26.70;55.90
16517;DHT22;8371;52.272;9.746;2022-09-09T13:55:29;26.70;56.00
16517;DHT22;8371;52.272;9.746;2022-09-09T13:58:03;26.70;56.30
16517;DHT22;8371;52.272;9.746;2022-09-09T14:00:32;26.80;56.50
16517;DHT22;8371;52.272;9.746;2022-09-09T14:02:58;26.90;56.70
16517;DHT22;8371;52.272;9.746;2022-09-09T14:05:26;27.00;57.20
16517;DHT22;8371;52.272;9.746;2022-09-09T14:07:52;27.20;56.30
16517;DHT22;8371;52.272;9.746;2022-09-09T14:10:18;27.40;56.40
16517;DHT22;8371;52.272;9.746;2022-09-09T14:12:44;27.60;56.30
16517;DHT22;8371;52.272;9.746;2022-09-09T14:15:11;27.80;56.10
16517;DHT22;8371;52.272;9.746;2022-09-09T14:17:37;28.10;56.00
16517;DHT22;8371;52.272;9.746;2022-09-09T14:20:03;28.30;56.10
16517;DHT22;8371;52.272;9.746;2022-09-09T14:22:31;28.60;56.00
16517;DHT22;8371;52.272;9.746;2022-09-09T14:24:57;28.90;55.60
16517;DHT22;8371;52.272;9.746;2022-09-09T14:27:23;29.20;55.30
16517;DHT22;8371;52.272;9.746;2022-09-09T14:29:50;29.40;55.10
16517;DHT22;8371;52.272;9.746;2022-09-09T14:32:16;29.60;54.40
16517;DHT22;8371;52.272;9.746;2022-09-09T14:34:42;29.80;54.00
16517;DHT22;8371;52.272;9.746;2022-09-09T14:37:07;30.00;53.40
16517;DHT22;8371;52.272;9.746;2022-09-09T14:39:33;30.10;53.00
16517;DHT22;8371;52.272;9.746;2022-09-09T14:41:59;30.20;52.50
16517;DHT22;8371;52.272;9.746;2022-09-09T14:44:25;30.20;52.10
16517;DHT22;8371;52.272;9.746;2022-09-09T14:46:51;30.20;51.60
16517;DHT22;8371;52.272;9.746;2022-09-09T14:49:16;30.20;52.10
16517;DHT22;8371;52.272;9.746;2022-09-09T14:51:42;30.10;51.20
16517;DHT22;8371;52.272;9.746;2022-09-09T14:54:08;30.10;51.20
16517;DHT22;8371;52.272;9.746;2022-09-09T14:56:34;30.10;51.10
16517;DHT22;8371;52.272;9.746;2022-09-09T14:59:00;30.10;51.20
16517;DHT22;8371;52.272;9.746;2022-09-09T15:01:27;30.10;51.10
16517;DHT22;8371;52.272;9.746;2022-09-09T15:03:59;30.10;51.10
16517;DHT22;8371;52.272;9.746;2022-09-09T15:06:24;30.00;51.00
16517;DHT22;8371;52.272;9.746;2022-09-09T15:08:52;30.00;50.70
16517;DHT22;8371;52.272;9.746;2022-09-09T15:11:19;30.00;50.40
16517;DHT22;8371;52.272;9.746;2022-09-09T15:13:46;29.90;50.10
16517;DHT22;8371;52.272;9.746;2022-09-09T15:16:17;29.80;50.00
16517;DHT22;8371;52.272;9.746;2022-09-09T15:18:45;29.70;50.00
16517;DHT22;8371;52.272;9.746;2022-09-09T15:21:14;29.60;49.80
16517;DHT22;8371;52.272;9.746;2022-09-09T15:23:40;29.50;49.60
16517;DHT22;8371;52.272;9.746;2022-09-09T15:26:06;29.30;49.30
16517;DHT22;8371;52.272;9.746;2022-09-09T15:28:33;29.20;49.30
16517;DHT22;8371;52.272;9.746;2022-09-09T15:31:10;29.10;49.30
16517;DHT22;8371;52.272;9.746;2022-09-09T15:33:33;29.00;49.50
16517;DHT22;8371;52.272;9.746;2022-09-09T15:35:59;28.90;49.70
16517;DHT22;8371;52.272;9.746;2022-09-09T15:38:25;28.80;49.70
16517;DHT22;8371;52.272;9.746;2022-09-09T15:40:54;28.80;49.70
16517;DHT22;8371;52.272;9.746;2022-09-09T15:43:21;28.70;49.80
16517;DHT22;8371;52.272;9.746;2022-09-09T15:45:52;28.70;49.70
16517;DHT22;8371;52.272;9.746;2022-09-09T15:48:16;28.80;50.00
16517;DHT22;8371;52.272;9.746;2022-09-09T15:50:42;28.80;50.10
16517;DHT22;8371;52.272;9.746;2022-09-09T15:53:08;28.80;50.10
16517;DHT22;8371;52.272;9.746;2022-09-09T15:55:33;28.90;49.90
16517;DHT22;8371;52.272;9.746;2022-09-09T15:57:59;28.90;50.00
16517;DHT22;8371;52.272;9.746;2022-09-09T16:00:26;29.00;49.80
16517;DHT22;8371;52.272;9.746;2022-09-09T16:02:54;29.10;49.80
16517;DHT22;8371;52.272;9.746;2022-09-09T16:05:19;29.20;49.50
16517;DHT22;8371;52.272;9.746;2022-09-09T16:07:46;29.20;49.60
16517;DHT22;8371;52.272;9.746;2022-09-09T16:10:13;29.30;49.40
16517;DHT22;8371;52.272;9.746;2022-09-09T16:12:39;29.40;49.20
16517;DHT22;8371;52.272;9.746;2022-09-09T16:15:05;29.40;48.90
16517;DHT22;8371;52.272;9.746;2022-09-09T16:17:31;29.40;48.60
16517;DHT22;8371;52.272;9.746;2022-09-09T16:19:59;29.40;48.60
16517;DHT22;8371;52.272;9.746;2022-09-09T16:22:25;29.30;48.40
16517;DHT22;8371;52.272;9.746;2022-09-09T16:24:50;29.30;48.50
16517;DHT22;8371;52.272;9.746;2022-09-09T16:27:16;29.20;48.40
16517;DHT22;8371;52.272;9.746;2022-09-09T16:29:42;29.20;48.30
16517;DHT22;8371;52.272;9.746;2022-09-09T16:32:07;29.10;48.40
16517;DHT22;8371;52.272;9.746;2022-09-09T16:34:33;28.90;48.20
16517;DHT22;8371;52.272;9.746;2022-09-09T16:36:59;28.80;48.20
16517;DHT22;8371;52.272;9.746;2022-09-09T16:39:27;28.70;48.00
16517;DHT22;8371;52.272;9.746;2022-09-09T16:41:52;28.50;48.20
16517;DHT22;8371;52.272;9.746;2022-09-09T16:44:18;28.40;48.20
16517;DHT22;8371;52.272;9.746;2022-09-09T16:46:45;28.20;48.20
16517;DHT22;8371;52.272;9.746;2022-09-09T16:49:14;28.00;48.20
16517;DHT22;8371;52.272;9.746;2022-09-09T16:51:44;27.80;48.20
16517;DHT22;8371;52.272;9.746;2022-09-09T16:54:10;27.60;48.20
16517;DHT22;8371;52.272;9.746;2022-09-09T16:56:38;27.40;48.30
16517;DHT22;8371;52.272;9.746;2022-09-09T16:59:09;27.30;48.40
16517;DHT22;8371;52.272;9.746;2022-09-09T17:01:37;27.10;49.20
16517;DHT22;8371;52.272;9.746;2022-09-09T17:04:05;26.90;48.70
16517;DHT22;8371;52.272;9.746;2022-09-09T17:06:33;26.70;48.90
16517;DHT22;8371;52.272;9.746;2022-09-09T17:09:09;26.50;48.90
16517;DHT22;8371;52.272;9.746;2022-09-09T17:11:36;26.30;49.00
16517;DHT22;8371;52.272;9.746;2022-09-09T17:14:03;26.20;49.10
16517;DHT22;8371;52.272;9.746;2022-09-09T17:16:31;26.00;49.10
16517;DHT22;8371;52.272;9.746;2022-09-09T17:18:57;25.90;49.20